createdAt,value
2018-07-02T00:04:01.419Z,0.90
2018-07-02T00:09:06.849Z,0.70
2018-07-02T00:14:12.158Z,0.70
2018-07-02T00:19:15.745Z,0.70
2018-07-02T00:24:18.981Z,0.80
2018-07-02T00:29:22.223Z,1.10
2018-07-02T00:34:26.363Z,0.80
2018-07-02T00:39:30.092Z,0.60
2018-07-02T00:44:33.257Z,0.87
2018-07-02T00:49:36.364Z,0.90
2018-07-02T00:54:39.471Z,0.90
2018-07-02T00:59:43.163Z,0.80
2018-07-02T01:04:46.342Z,0.90
2018-07-02T01:09:49.563Z,0.80
2018-07-02T01:14:53.370Z,0.90
2018-07-02T01:19:56.487Z,1.00
2018-07-02T01:25:01.892Z,1.03
2018-07-02T01:30:05.009Z,1.10
2018-07-02T01:35:08.142Z,0.90
2018-07-02T01:40:11.267Z,1.10
2018-07-02T01:45:14.394Z,1.10
2018-07-02T01:50:17.574Z,0.97
2018-07-02T01:55:21.848Z,0.90
2018-07-02T02:00:25.044Z,1.00
2018-07-02T02:05:28.175Z,0.80
2018-07-02T02:10:31.400Z,1.00
2018-07-02T02:15:34.505Z,0.93
2018-07-02T02:20:37.877Z,1.07
2018-07-02T02:25:40.983Z,1.00
2018-07-02T02:30:44.085Z,0.90
2018-07-02T02:35:47.239Z,1.00
2018-07-02T02:40:50.432Z,1.00
2018-07-02T02:45:53.589Z,0.90
2018-07-02T02:50:56.720Z,1.00
2018-07-02T02:55:59.956Z,1.10
2018-07-02T03:01:03.117Z,1.67
2018-07-02T03:06:06.232Z,1.90
2018-07-02T03:11:09.442Z,1.87
2018-07-02T03:16:13.184Z,1.70
2018-07-02T03:21:16.845Z,1.70
2018-07-02T03:26:20.019Z,1.70
2018-07-02T03:31:23.221Z,1.80
2018-07-02T03:36:26.330Z,2.80
2018-07-02T03:41:29.494Z,3.33
2018-07-02T03:46:32.712Z,3.30
2018-07-02T03:51:35.851Z,3.17
2018-07-02T03:56:39.024Z,3.87
2018-07-02T04:01:42.089Z,3.70
2018-07-02T04:06:45.371Z,4.00
2018-07-02T04:11:48.549Z,2.73
2018-07-02T04:16:52.303Z,2.00
2018-07-02T04:21:55.418Z,1.70
2018-07-02T04:26:58.548Z,1.57
2018-07-02T04:32:01.703Z,1.47
2018-07-02T04:37:04.871Z,1.40
2018-07-02T04:42:08.439Z,1.47
2018-07-02T04:47:11.536Z,1.67
2018-07-02T04:52:14.631Z,2.03
2018-07-02T04:57:17.799Z,1.97
2018-07-02T05:02:21.036Z,1.70
2018-07-02T05:07:24.749Z,2.17
2018-07-02T05:12:28.201Z,2.07
2018-07-02T05:17:31.279Z,2.00
2018-07-02T05:22:34.395Z,1.30
2018-07-02T05:27:37.511Z,1.03
2018-07-02T05:32:40.625Z,1.10
2018-07-02T05:37:43.825Z,1.20
2018-07-02T05:42:47.078Z,0.93
2018-07-02T05:47:50.387Z,1.10
2018-07-02T05:52:53.941Z,1.10
2018-07-02T05:57:57.127Z,0.93
2018-07-02T06:03:00.261Z,1.20
2018-07-02T06:08:03.452Z,0.80
2018-07-02T06:13:06.650Z,1.20
2018-07-02T06:18:09.803Z,0.90
2018-07-02T06:23:14.199Z,0.90
2018-07-02T06:28:17.497Z,0.70
2018-07-02T06:33:20.851Z,1.00
2018-07-02T06:38:24.127Z,0.80
2018-07-02T06:43:27.365Z,0.68
2018-07-02T06:48:31.084Z,0.70
2018-07-02T06:53:34.712Z,0.88
2018-07-02T06:58:37.784Z,0.70
2018-07-02T07:03:40.926Z,0.72
2018-07-02T07:08:44.149Z,0.80
2018-07-02T07:13:47.824Z,0.78
2018-07-02T07:18:51.202Z,0.80
2018-07-02T07:23:54.445Z,1.10
2018-07-02T07:28:57.721Z,1.00
2018-07-02T07:34:01.646Z,0.95
2018-07-02T07:39:07.383Z,1.20
2018-07-02T07:44:11.043Z,0.90
2018-07-02T07:49:14.223Z,0.88
2018-07-02T07:54:17.369Z,0.68
2018-07-02T07:59:20.568Z,0.80
2018-07-02T08:04:23.689Z,0.68
2018-07-02T08:09:27.055Z,0.95
2018-07-02T08:14:30.546Z,0.72
2018-07-02T08:19:33.825Z,0.80
2018-07-02T08:24:36.996Z,0.90
2018-07-02T08:29:40.128Z,0.65
2018-07-02T08:34:43.275Z,1.07
2018-07-02T08:39:46.403Z,0.80
2018-07-02T08:44:49.533Z,0.80
2018-07-02T08:49:52.743Z,0.82
2018-07-02T08:54:55.856Z,0.80
2018-07-02T08:59:59.132Z,1.00
2018-07-02T09:05:02.354Z,0.90
2018-07-02T09:10:05.600Z,0.90
2018-07-02T09:15:08.783Z,0.90
2018-07-02T09:20:11.996Z,0.88
2018-07-02T09:25:16.154Z,0.70
2018-07-02T09:30:19.283Z,0.80
2018-07-02T09:35:22.497Z,0.80
2018-07-02T09:40:25.692Z,0.80
2018-07-02T09:45:29.240Z,0.70
2018-07-02T09:50:32.434Z,0.80
2018-07-02T09:55:35.705Z,0.90
2018-07-02T10:00:38.903Z,0.80
2018-07-02T10:05:42.181Z,1.02
2018-07-02T10:10:45.328Z,1.00
2018-07-02T10:15:48.549Z,0.70
2018-07-02T10:20:51.855Z,1.00
2018-07-02T10:25:55.037Z,0.93
2018-07-02T10:30:58.846Z,0.90
2018-07-02T10:36:02.173Z,0.80
2018-07-02T10:41:06.272Z,0.73
2018-07-02T10:46:09.946Z,1.10
2018-07-02T10:51:13.081Z,1.00
2018-07-02T10:56:16.243Z,0.80
2018-07-02T11:01:19.430Z,0.80
2018-07-02T11:06:22.541Z,1.00
2018-07-02T11:11:25.894Z,0.83
2018-07-02T11:16:29.373Z,0.90
2018-07-02T11:21:32.583Z,0.70
2018-07-02T11:26:35.830Z,0.80
2018-07-02T11:31:39.041Z,0.70
2018-07-02T11:36:42.245Z,0.67
2018-07-02T11:41:45.461Z,0.60
2018-07-02T11:46:49.161Z,0.90
2018-07-02T11:51:52.304Z,0.90
2018-07-02T11:56:55.408Z,0.70
2018-07-02T12:01:58.763Z,0.60
2018-07-02T12:07:02.043Z,0.77
2018-07-02T12:12:05.691Z,0.60
2018-07-02T12:17:08.946Z,0.60
2018-07-02T12:22:12.063Z,0.60
2018-07-02T12:27:15.830Z,1.10
2018-07-02T12:32:18.994Z,0.60
2018-07-02T12:37:22.360Z,0.90
2018-07-02T12:42:25.875Z,0.50
2018-07-02T12:47:29.355Z,0.80
2018-07-02T12:52:32.855Z,0.50
2018-07-02T12:57:36.043Z,0.77
2018-07-02T13:02:39.479Z,0.60
2018-07-02T13:07:42.634Z,0.80
2018-07-02T13:12:45.721Z,0.53
2018-07-02T13:17:48.854Z,0.70
2018-07-02T13:22:51.989Z,0.77
2018-07-02T13:27:55.303Z,0.77
2018-07-02T13:32:58.916Z,0.70
2018-07-02T13:38:02.239Z,0.50
2018-07-02T13:43:05.510Z,0.60
2018-07-02T13:48:08.658Z,0.70
2018-07-02T13:53:11.911Z,0.60
2018-07-02T13:58:15.020Z,0.80
2018-07-02T14:03:18.167Z,0.73
2018-07-02T14:08:21.527Z,0.70
2018-07-02T14:13:24.656Z,0.70
2018-07-02T14:18:27.905Z,0.50
2018-07-02T14:23:31.503Z,0.70
2018-07-02T14:28:34.753Z,0.40
2018-07-02T14:33:38.400Z,0.67
2018-07-02T14:38:41.615Z,0.80
2018-07-02T14:43:44.906Z,0.57
2018-07-02T14:48:48.077Z,0.70
2018-07-02T14:53:51.382Z,0.60
2018-07-02T14:58:54.630Z,0.57
2018-07-02T15:03:58.054Z,0.77
2018-07-02T15:09:01.453Z,0.67
2018-07-02T15:14:05.670Z,0.73
2018-07-02T15:19:08.812Z,0.70
2018-07-02T15:24:12.025Z,0.80
2018-07-02T15:29:15.200Z,0.83
2018-07-02T15:34:18.271Z,0.57
2018-07-02T15:39:21.525Z,0.60
2018-07-02T15:44:24.656Z,0.60
2018-07-02T15:49:28.308Z,0.90
2018-07-02T15:54:31.512Z,0.60
2018-07-02T15:59:34.761Z,1.10
2018-07-02T16:04:37.926Z,0.90
2018-07-02T16:09:41.067Z,0.70
2018-07-02T16:14:44.789Z,0.80
2018-07-02T16:19:47.934Z,0.57
2018-07-02T16:24:51.077Z,0.90
2018-07-02T16:29:54.294Z,0.57
2018-07-02T16:34:57.657Z,0.80
2018-07-02T16:40:01.073Z,1.30
2018-07-02T16:45:04.395Z,1.00
2018-07-02T16:50:07.513Z,1.07
2018-07-02T16:55:10.655Z,1.10
2018-07-02T17:00:13.910Z,0.90
2018-07-02T17:05:17.210Z,0.90
2018-07-02T17:10:20.496Z,1.10
2018-07-02T17:15:23.616Z,0.80
2018-07-02T17:20:26.883Z,0.73
2018-07-02T17:25:30.108Z,0.70
2018-07-02T17:30:33.274Z,0.90
2018-07-02T17:35:36.651Z,0.83
2018-07-02T17:40:39.869Z,1.60
2018-07-02T17:45:43.017Z,0.83
2018-07-02T17:50:46.180Z,1.43
2018-07-02T17:55:49.363Z,0.90
2018-07-02T18:00:52.660Z,0.90
2018-07-02T18:05:55.846Z,1.00
2018-07-02T18:10:59.601Z,0.80
2018-07-02T18:16:03.125Z,0.90
2018-07-02T18:21:06.598Z,0.80
2018-07-02T18:26:09.905Z,0.80
2018-07-02T18:31:13.053Z,0.80
2018-07-02T18:36:16.640Z,0.80
2018-07-02T18:41:31.358Z,1.00
2018-07-02T18:46:35.488Z,1.00
2018-07-02T18:51:38.995Z,0.83
2018-07-02T18:56:42.307Z,0.90
2018-07-02T19:01:48.954Z,0.80
2018-07-02T19:06:56.841Z,0.90
2018-07-02T19:12:00.221Z,0.90
2018-07-02T19:17:03.484Z,1.23
2018-07-02T19:22:10.452Z,0.70
2018-07-02T19:27:13.813Z,0.63
2018-07-02T19:32:19.406Z,0.90
2018-07-02T19:37:24.657Z,1.07
2018-07-02T19:42:28.015Z,1.00
2018-07-02T19:47:31.644Z,0.80
2018-07-02T19:52:37.111Z,0.90
2018-07-02T19:57:42.363Z,1.00
2018-07-02T20:02:48.376Z,1.07
2018-07-02T20:07:54.987Z,0.83
2018-07-02T20:12:59.768Z,0.93
2018-07-02T20:18:06.057Z,0.97
2018-07-02T20:23:09.652Z,1.73
2018-07-02T20:28:13.082Z,1.20
2018-07-02T20:33:17.205Z,1.23
2018-07-02T20:38:22.879Z,1.67
2018-07-02T20:43:29.486Z,1.50
2018-07-02T20:48:35.251Z,1.67
2018-07-02T20:53:42.183Z,1.33
2018-07-02T20:58:46.425Z,1.23
2018-07-02T21:03:49.699Z,2.00
2018-07-02T21:08:58.399Z,1.50
2018-07-02T21:14:04.602Z,1.60
2018-07-02T21:19:10.246Z,1.50
2018-07-02T21:24:16.680Z,1.43
2018-07-02T21:29:24.474Z,1.27
2018-07-02T21:34:28.055Z,1.50
2018-07-02T21:39:31.903Z,1.30
2018-07-02T21:44:36.242Z,1.37
2018-07-02T21:49:41.295Z,1.10
2018-07-02T21:54:46.698Z,1.47
2018-07-02T21:59:50.228Z,2.00
2018-07-02T22:04:59.899Z,1.20
2018-07-02T22:10:06.025Z,1.57
2018-07-02T22:20:19.984Z,1.33
2018-07-02T22:25:24.255Z,2.70
2018-07-02T22:30:31.189Z,1.63
2018-07-02T22:35:38.412Z,1.50
2018-07-02T22:40:41.933Z,1.43
2018-07-02T22:45:45.061Z,1.30
2018-07-02T22:50:48.194Z,1.40
2018-07-02T22:55:58.750Z,1.60
2018-07-02T23:01:01.944Z,1.63
2018-07-02T23:06:05.470Z,1.60
2018-07-02T23:11:08.662Z,1.50
2018-07-02T23:16:11.772Z,1.67
2018-07-02T23:37:14.368Z,1.67
2018-07-02T23:42:17.507Z,1.73
2018-07-02T23:47:20.592Z,1.70
2018-07-02T23:52:23.711Z,1.60
2018-07-02T23:57:26.866Z,1.50
